Weather History for Monett, MO

Change the Weather History Date:

Friday, February 15, 2013

  Actual Average (KJLN) Record (KJLN)
Temperature  
Mean Temperature 34 °F 40 °F  
Max Temperature 41 °F 51 °F 72 °F (1976)
Min Temperature 26 °F 29 °F 8 °F (1986)
Degree Days  
Heating Degree Days 32 25  
Month to date heating degree days 405  
Since 1 July heating degree days 2954  
Cooling Degree Days 0 0  
Month to date cooling degree days 0  
Year to date cooling degree days 0  
Moisture  
Dew Point 20 °F    
Average Humidity 61    
Maximum Humidity 86    
Minimum Humidity 38    
Precipitation  
Precipitation 0.00 in 0.08 in 1.55 in (1957)
Month to date precipitation 1.14  
Year to date precipitation 3.17  
Sea Level Pressure  
Sea Level Pressure 30.26 in    
Wind  
Wind Speed 9 mph (NW)    
Max Wind Speed 15 mph    
Max Gust Speed 24 mph    
Visibility 10 miles    
Events      
T = Trace of Precipitation, MM = Missing Value Source: NWS Daily Summary

Daily Weather History Graph

Daily Weather History Graph

Search for Another Location

Airport:

Trip Planner

Search our weather history database for the weather conditions in past years. The results will help you decide how hot, cold, wet, or windy it might be!

Date:

Astronomy

Feb. 15, 2013 Rise Set
Actual Time 7:04 AM CST 5:56 PM CST
Civil Twilight 6:37 AM CST 6:23 PM CST
Nautical Twilight 6:07 AM CST 6:53 PM CST
Astronomical Twilight 5:37 AM CST 7:23 PM CST
Moon 9:50 AM CST (2/15) 11:47 PM CST (2/15)
Length of Visible Light 11h 45m
Length of Day
10h 52m
Waxing Crescent, 30% of the Moon is Illuminated
Feb 15
Waxing Crescent
Feb 17
First Quarter
Feb 25
Full
Mar 4
Last Quarter
Mar 11
New

Hourly Weather History & Observations

Time (CST) Temp. Windchill Dew Point Humidity Pressure Visibility Wind Dir Wind Speed Gust Speed Precip Events Conditions
12:15 AM 41.0 °F 36.4 °F 30.2 °F 65% 30.16 in 10.0 mi NW 6.9 mph - N/A   Overcast
12:35 AM 41.0 °F 35.8 °F 30.2 °F 65% 30.16 in 10.0 mi NW 8.1 mph - N/A   Overcast
12:55 AM 39.2 °F 34.2 °F 30.2 °F 70% 30.16 in 10.0 mi NW 6.9 mph - N/A   Scattered Clouds
1:15 AM 39.2 °F 35.0 °F 28.4 °F 65% 30.16 in 10.0 mi NW 5.8 mph - N/A   Mostly Cloudy
1:35 AM 37.4 °F 33.8 °F 28.4 °F 70% 30.16 in 10.0 mi WNW 4.6 mph - N/A   Mostly Cloudy
1:55 AM 37.4 °F 31.4 °F 28.4 °F 70% 30.16 in 10.0 mi NW 8.1 mph - N/A   Scattered Clouds
2:15 AM 35.6 °F 28.0 °F 28.4 °F 75% 30.17 in 10.0 mi NW 10.4 mph - N/A   Clear
2:35 AM 35.6 °F 27.1 °F 26.6 °F 70% 30.18 in 10.0 mi NW 12.7 mph - N/A   Clear
2:55 AM 35.6 °F 27.1 °F 26.6 °F 70% 30.18 in 10.0 mi NW 12.7 mph - N/A   Clear
3:15 AM 33.8 °F 24.8 °F 24.8 °F 70% 30.19 in 10.0 mi NW 12.7 mph 18.4 mph N/A   Clear
3:35 AM 33.8 °F 26.4 °F 26.6 °F 75% 30.19 in 10.0 mi NW 9.2 mph - N/A   Clear
3:55 AM 33.8 °F 24.3 °F 24.8 °F 70% 30.20 in 10.0 mi NW 13.8 mph 24.2 mph N/A   Clear
4:15 AM 32.0 °F 22.5 °F 24.8 °F 75% 30.21 in 10.0 mi NW 12.7 mph - N/A   Clear
4:35 AM 32.0 °F 22.1 °F 24.8 °F 75% 30.22 in 10.0 mi NW 13.8 mph - N/A   Clear
4:55 AM 32.0 °F 24.2 °F 26.6 °F 80% 30.23 in 10.0 mi NW 9.2 mph 16.1 mph N/A   Clear
5:15 AM 30.2 °F 20.8 °F 24.8 °F 80% 30.23 in 10.0 mi NW 11.5 mph - N/A   Clear
5:35 AM 30.2 °F 21.9 °F 26.6 °F 86% 30.23 in 10.0 mi NW 9.2 mph - N/A   Mostly Cloudy
5:55 AM 30.2 °F 21.9 °F 26.6 °F 86% 30.24 in 10.0 mi NW 9.2 mph - N/A   Overcast
6:15 AM 30.2 °F 23.4 °F 26.6 °F 86% 30.25 in 10.0 mi NW 6.9 mph - N/A   Overcast
6:35 AM 30.2 °F 20.8 °F 26.6 °F 86% 30.25 in 10.0 mi NW 11.5 mph - N/A   Overcast
6:55 AM 30.2 °F 20.8 °F 26.6 °F 86% 30.26 in 10.0 mi NW 11.5 mph - N/A   Overcast
7:15 AM 30.2 °F 21.3 °F 26.6 °F 86% 30.27 in 10.0 mi NW 10.4 mph - N/A   Overcast
7:35 AM 30.2 °F 20.8 °F 26.6 °F 86% 30.27 in 10.0 mi NNW 11.5 mph - N/A   Overcast
7:55 AM 30.2 °F 19.3 °F 26.6 °F 86% 30.28 in 10.0 mi NW 15.0 mph - N/A   Overcast
8:15 AM 32.0 °F 21.6 °F 24.8 °F 75% 30.29 in 10.0 mi NW 15.0 mph - N/A   Overcast
8:35 AM 32.0 °F 22.5 °F 24.8 °F 75% 30.30 in 10.0 mi NW 12.7 mph - N/A   Overcast
8:55 AM 30.2 °F 20.2 °F 24.8 °F 80% 30.30 in 10.0 mi NW 12.7 mph - N/A   Overcast
9:15 AM 30.2 °F 19.8 °F 23.0 °F 75% 30.30 in 10.0 mi NNW 13.8 mph 18.4 mph N/A   Mostly Cloudy
9:35 AM 32.0 °F 21.6 °F 23.0 °F 69% 30.30 in 10.0 mi NW 15.0 mph 18.4 mph N/A   Mostly Cloudy
9:55 AM 32.0 °F 22.1 °F 21.2 °F 64% 30.31 in 10.0 mi NW 13.8 mph - N/A   Scattered Clouds
10:15 AM 32.0 °F 23.6 °F 21.2 °F 64% 30.31 in 10.0 mi NNW 10.4 mph 18.4 mph N/A   Clear
10:35 AM 32.0 °F 23.0 °F 19.4 °F 60% 30.32 in 10.0 mi NNW 11.5 mph 16.1 mph N/A   Clear
10:55 AM 32.0 °F 23.6 °F 19.4 °F 60% 30.32 in 10.0 mi NW 10.4 mph - N/A   Clear
11:15 AM 32.0 °F 23.0 °F 19.4 °F 60% 30.32 in 10.0 mi NNW 11.5 mph - N/A   Clear
11:35 AM 33.8 °F 24.8 °F 19.4 °F 56% 30.32 in 10.0 mi NW 12.7 mph 16.1 mph N/A   Clear
11:55 AM 33.8 °F 25.8 °F 17.6 °F 52% 30.31 in 10.0 mi NW 10.4 mph 16.1 mph N/A   Clear
12:15 PM 33.8 °F 24.3 °F 15.8 °F 48% 30.31 in 10.0 mi NW 13.8 mph 18.4 mph N/A   Clear
12:35 PM 33.8 °F 25.3 °F 14.0 °F 44% 30.30 in 10.0 mi NNW 11.5 mph 18.4 mph N/A   Clear
12:55 PM 35.6 °F 28.6 °F 14.0 °F 41% 30.30 in 10.0 mi North 9.2 mph 17.3 mph N/A   Clear
1:15 PM 35.6 °F 26.6 °F 15.8 °F 44% 30.28 in 10.0 mi NW 13.8 mph - N/A   Clear
1:35 PM 35.6 °F 28.0 °F 14.0 °F 41% 30.28 in 10.0 mi NW 10.4 mph 16.1 mph N/A   Clear
1:55 PM 35.6 °F 27.1 °F 14.0 °F 41% 30.28 in 10.0 mi NW 12.7 mph 18.4 mph N/A   Clear
2:15 PM 35.6 °F 28.0 °F 14.0 °F 41% 30.27 in 10.0 mi North 10.4 mph - N/A   Clear
2:35 PM 35.6 °F 28.6 °F 14.0 °F 41% 30.27 in 10.0 mi NW 9.2 mph 17.3 mph N/A   Clear
2:55 PM 35.6 °F 26.6 °F 17.6 °F 48% 30.27 in 10.0 mi NNW 13.8 mph - N/A   Clear
3:15 PM 35.6 °F 26.2 °F 15.8 °F 44% 30.27 in 10.0 mi NW 15.0 mph 18.4 mph N/A   Clear
3:35 PM 35.6 °F 28.6 °F 14.0 °F 41% 30.27 in 10.0 mi WNW 9.2 mph - N/A   Clear
3:55 PM 35.6 °F 28.0 °F 14.0 °F 41% 30.27 in 10.0 mi WNW 10.4 mph 17.3 mph N/A   Clear
4:15 PM 35.6 °F 27.5 °F 12.2 °F 38% 30.27 in 10.0 mi NW 11.5 mph - N/A   Clear
4:35 PM 35.6 °F 28.0 °F 14.0 °F 41% 30.27 in 10.0 mi NW 10.4 mph 17.3 mph N/A   Clear
5:15 PM 35.6 °F 28.0 °F 14.0 °F 41% 30.27 in 10.0 mi NNW 10.4 mph - N/A   Clear
5:35 PM 33.8 °F 26.4 °F 12.2 °F 41% 30.27 in 10.0 mi NW 9.2 mph - N/A   Clear
5:55 PM 33.8 °F 26.4 °F 12.2 °F 41% 30.27 in 10.0 mi NW 9.2 mph - N/A   Clear
6:15 PM 32.0 °F 26.4 °F 14.0 °F 48% 30.28 in 10.0 mi WNW 5.8 mph - N/A   Clear
6:35 PM 32.0 °F 26.4 °F 14.0 °F 48% 30.28 in 10.0 mi WNW 5.8 mph - N/A   Clear
6:55 PM 32.0 °F 27.5 °F 14.0 °F 48% 30.28 in 10.0 mi NW 4.6 mph - N/A   Clear
7:15 PM 32.0 °F 27.5 °F 14.0 °F 48% 30.29 in 10.0 mi NW 4.6 mph - N/A   Clear
7:35 PM 30.2 °F 24.3 °F 14.0 °F 51% 30.29 in 10.0 mi NNW 5.8 mph - N/A   Clear
7:55 PM 30.2 °F 24.3 °F 15.8 °F 55% 30.29 in 10.0 mi NW 5.8 mph - N/A   Clear
8:15 PM 30.2 °F 25.4 °F 15.8 °F 55% 30.29 in 10.0 mi NW 4.6 mph - N/A   Clear
8:35 PM 30.2 °F 26.7 °F 15.8 °F 55% 30.29 in 10.0 mi WNW 3.5 mph - N/A   Clear
8:55 PM 28.4 °F 24.6 °F 14.0 °F 55% 30.28 in 10.0 mi West 3.5 mph - N/A   Clear
9:15 PM 28.4 °F - 14.0 °F 55% 30.28 in 10.0 mi Calm Calm - N/A   Clear
9:35 PM 28.4 °F - 14.0 °F 55% 30.28 in 10.0 mi Calm Calm - N/A   Clear
9:55 PM 28.4 °F - 14.0 °F 55% 30.27 in 10.0 mi Calm Calm - N/A   Clear
10:15 PM 26.6 °F 21.2 °F 14.0 °F 59% 30.27 in 10.0 mi SSW 4.6 mph - N/A   Clear
10:35 PM 26.6 °F 21.2 °F 14.0 °F 59% 30.26 in 10.0 mi South 4.6 mph - N/A   Clear
10:55 PM 26.6 °F 21.2 °F 14.0 °F 59% 30.26 in 10.0 mi SSW 4.6 mph - N/A   Clear
11:15 PM 26.6 °F 21.2 °F 14.0 °F 59% 30.25 in 10.0 mi SSW 4.6 mph - N/A   Mostly Cloudy
11:35 PM 26.6 °F 22.6 °F 15.8 °F 64% 30.24 in 10.0 mi South 3.5 mph - N/A   Mostly Cloudy
11:55 PM 26.6 °F 22.6 °F 15.8 °F 64% 30.25 in 10.0 mi SW 3.5 mph - N/A   Mostly Cloudy